createdAt,value
2017-12-26T00:01:37.736Z,6.90
2017-12-26T00:03:38.726Z,6.60
2017-12-26T00:05:39.687Z,6.67
2017-12-26T00:07:41.204Z,8.10
2017-12-26T00:09:42.210Z,7.77
2017-12-26T00:11:43.182Z,8.30
2017-12-26T00:13:44.215Z,7.00
2017-12-26T00:15:45.334Z,7.97
2017-12-26T00:17:47.069Z,6.80
2017-12-26T00:19:48.803Z,7.30
2017-12-26T00:21:49.928Z,7.57
2017-12-26T00:23:51.020Z,8.10
2017-12-26T00:25:51.983Z,7.20
2017-12-26T00:27:52.919Z,8.20
2017-12-26T00:29:53.985Z,8.73
2017-12-26T00:31:55.022Z,9.47
2017-12-26T00:33:56.751Z,8.63
2017-12-26T00:35:57.830Z,9.23
2017-12-26T00:37:59.590Z,8.63
2017-12-26T00:40:00.647Z,9.13
2017-12-26T00:42:02.431Z,9.60
2017-12-26T00:44:03.366Z,9.33
2017-12-26T00:46:05.223Z,10.53
2017-12-26T00:48:06.320Z,9.90
2017-12-26T00:50:07.294Z,8.50
2017-12-26T00:52:08.376Z,9.60
2017-12-26T00:54:10.251Z,7.90
2017-12-26T00:56:11.296Z,8.90
2017-12-26T00:58:13.003Z,8.83
2017-12-26T01:00:14.084Z,9.30
2017-12-26T01:02:15.083Z,7.77
2017-12-26T01:04:16.119Z,10.07
2017-12-26T01:06:17.234Z,8.27
2017-12-26T01:08:18.190Z,10.70
2017-12-26T01:10:19.276Z,8.03
2017-12-26T01:12:20.275Z,7.53
2017-12-26T01:14:22.046Z,8.77
2017-12-26T01:16:23.035Z,7.90
2017-12-26T01:18:23.999Z,9.10
2017-12-26T01:20:24.987Z,9.87
2017-12-26T01:22:25.967Z,10.50
2017-12-26T01:24:26.939Z,9.13
2017-12-26T01:26:27.903Z,9.43
2017-12-26T01:28:28.859Z,8.80
2017-12-26T01:30:29.827Z,10.23
2017-12-26T01:32:31.574Z,9.00
2017-12-26T01:34:33.446Z,9.73
2017-12-26T01:36:34.721Z,10.50
2017-12-26T01:38:35.944Z,10.20
2017-12-26T01:40:36.888Z,10.50
2017-12-26T01:42:37.860Z,10.93
2017-12-26T01:44:38.805Z,11.40
2017-12-26T01:46:39.785Z,7.80
2017-12-26T01:48:40.840Z,11.87
2017-12-26T01:50:41.948Z,11.60
2017-12-26T01:52:42.987Z,11.80
2017-12-26T01:54:44.000Z,11.17
2017-12-26T01:56:44.990Z,11.50
2017-12-26T01:58:46.691Z,11.50
2017-12-26T02:00:47.670Z,12.60
2017-12-26T02:02:48.719Z,13.40
2017-12-26T02:04:49.669Z,12.10
2017-12-26T02:06:51.441Z,13.47
2017-12-26T02:08:53.148Z,12.53
2017-12-26T02:10:54.156Z,12.80
2017-12-26T02:12:55.887Z,11.30
2017-12-26T02:14:56.931Z,8.87
2017-12-26T02:16:57.894Z,12.23
2017-12-26T02:18:58.887Z,11.00
2017-12-26T02:21:00.212Z,10.60
2017-12-26T02:23:02.018Z,10.80
2017-12-26T02:25:03.147Z,9.30
2017-12-26T02:27:04.183Z,10.93
2017-12-26T02:29:05.198Z,10.50
2017-12-26T02:31:06.147Z,11.07
2017-12-26T02:33:07.205Z,8.10
2017-12-26T02:35:08.928Z,11.45
2017-12-26T02:37:09.916Z,10.20
2017-12-26T02:39:10.890Z,9.67
2017-12-26T02:41:11.929Z,9.17
2017-12-26T02:43:12.871Z,11.07
2017-12-26T02:45:13.860Z,7.67
2017-12-26T02:47:14.826Z,10.97
2017-12-26T02:49:15.878Z,10.77
2017-12-26T02:51:16.908Z,10.10
2017-12-26T02:53:17.926Z,8.47
2017-12-26T02:55:18.910Z,7.53
2017-12-26T02:57:19.886Z,5.50
2017-12-26T02:59:21.623Z,7.70
2017-12-26T03:01:22.617Z,9.43
2017-12-26T03:03:23.644Z,8.53
2017-12-26T03:05:25.454Z,7.50
2017-12-26T03:07:26.394Z,9.10
2017-12-26T03:09:27.326Z,9.37
2017-12-26T03:11:28.443Z,8.23
2017-12-26T03:13:29.412Z,7.00
2017-12-26T03:15:31.131Z,8.60
2017-12-26T03:17:32.168Z,9.10
2017-12-26T03:19:33.163Z,9.50
2017-12-26T03:21:34.234Z,9.67
2017-12-26T03:23:35.231Z,8.20
2017-12-26T03:25:36.205Z,9.73
2017-12-26T03:27:37.199Z,8.73
2017-12-26T03:29:38.191Z,8.57
2017-12-26T03:31:39.886Z,10.37
2017-12-26T03:33:40.879Z,9.90
2017-12-26T03:35:41.971Z,8.20
2017-12-26T03:37:42.960Z,9.10
2017-12-26T03:39:43.942Z,9.30
2017-12-26T03:41:45.649Z,10.73
2017-12-26T03:43:46.614Z,7.83
2017-12-26T03:45:47.611Z,9.73
2017-12-26T03:47:48.636Z,8.80
2017-12-26T03:49:49.590Z,9.27
2017-12-26T03:51:51.359Z,8.47
2017-12-26T03:53:52.343Z,8.37
2017-12-26T03:55:53.326Z,11.10
2017-12-26T03:57:54.300Z,8.77
2017-12-26T03:59:55.278Z,9.47
2017-12-26T04:01:56.234Z,9.10
2017-12-26T04:03:57.226Z,8.60
2017-12-26T04:05:58.918Z,8.57
2017-12-26T04:07:59.922Z,9.60
2017-12-26T04:10:00.871Z,10.30
2017-12-26T04:12:02.604Z,11.33
2017-12-26T04:14:03.580Z,9.40
2017-12-26T04:16:04.571Z,8.83
2017-12-26T04:18:05.612Z,9.90
2017-12-26T04:20:06.584Z,9.80
2017-12-26T04:22:07.614Z,10.50
2017-12-26T04:24:08.648Z,9.40
2017-12-26T04:26:09.655Z,9.27
2017-12-26T04:28:10.652Z,9.20
2017-12-26T04:30:11.784Z,8.93
2017-12-26T04:32:12.791Z,9.20
2017-12-26T04:34:13.835Z,9.60
2017-12-26T04:36:14.819Z,11.20
2017-12-26T04:38:16.527Z,10.27
2017-12-26T04:40:17.474Z,10.90
2017-12-26T04:42:18.542Z,9.83
2017-12-26T04:44:19.526Z,10.70
2017-12-26T04:46:20.521Z,10.20
2017-12-26T04:48:21.514Z,10.70
2017-12-26T04:50:22.563Z,10.40
2017-12-26T04:52:23.549Z,10.10
2017-12-26T04:54:24.506Z,11.03
2017-12-26T04:56:25.523Z,10.80
2017-12-26T04:58:26.502Z,9.20
2017-12-26T05:00:27.539Z,10.13
2017-12-26T05:02:28.550Z,10.40
2017-12-26T05:04:29.771Z,10.23
2017-12-26T05:06:30.730Z,9.60
2017-12-26T05:08:32.500Z,9.93
2017-12-26T05:10:34.201Z,9.83
2017-12-26T05:12:35.179Z,10.50
2017-12-26T05:14:36.326Z,10.30
2017-12-26T05:16:37.286Z,10.33
2017-12-26T05:18:38.308Z,9.90
2017-12-26T05:20:39.353Z,10.47
2017-12-26T05:22:40.358Z,10.70
2017-12-26T05:24:41.383Z,11.80
2017-12-26T05:26:42.324Z,11.23
2017-12-26T05:28:43.311Z,9.03
2017-12-26T05:30:44.398Z,10.10
2017-12-26T05:32:45.451Z,11.13
2017-12-26T05:34:46.402Z,12.10
2017-12-26T05:36:47.339Z,10.37
2017-12-26T05:38:48.367Z,9.83
2017-12-26T05:40:49.407Z,10.00
2017-12-26T05:42:50.396Z,8.70
2017-12-26T05:44:51.435Z,9.87
2017-12-26T05:46:52.459Z,8.40
2017-12-26T05:48:53.451Z,9.40
2017-12-26T05:50:55.305Z,9.70
2017-12-26T05:52:57.001Z,10.37
2017-12-26T05:54:57.991Z,10.10
2017-12-26T05:56:59.034Z,10.17
2017-12-26T05:59:00.034Z,9.00
2017-12-26T06:01:01.009Z,11.23
2017-12-26T06:03:01.987Z,9.93
2017-12-26T06:05:02.948Z,10.30
2017-12-26T06:07:03.972Z,11.07
2017-12-26T06:09:05.777Z,7.87
2017-12-26T06:11:06.734Z,8.20
2017-12-26T06:13:08.592Z,12.90
2017-12-26T06:15:10.387Z,9.63
2017-12-26T06:17:11.406Z,8.13
2017-12-26T06:19:12.374Z,11.80
2017-12-26T06:21:13.357Z,10.70
2017-12-26T06:23:14.394Z,10.70
2017-12-26T06:25:15.388Z,9.97
2017-12-26T06:27:17.115Z,12.57
2017-12-26T06:29:18.071Z,10.50
2017-12-26T06:31:19.010Z,10.67
2017-12-26T06:33:19.994Z,10.43
2017-12-26T06:35:21.706Z,11.07
2017-12-26T06:37:22.712Z,10.50
2017-12-26T06:39:23.703Z,9.60
2017-12-26T06:41:24.687Z,11.73
2017-12-26T06:43:25.646Z,11.47
2017-12-26T06:45:26.576Z,11.70
2017-12-26T06:47:27.503Z,11.77
2017-12-26T06:49:28.458Z,11.87
2017-12-26T06:51:29.466Z,11.50
2017-12-26T06:53:30.497Z,10.90
2017-12-26T06:55:31.509Z,9.90
2017-12-26T06:57:33.195Z,11.27
2017-12-26T06:59:34.164Z,11.00
2017-12-26T07:01:35.106Z,11.10
2017-12-26T07:03:36.055Z,12.10
2017-12-26T07:05:37.083Z,12.50
2017-12-26T07:07:38.068Z,12.83
2017-12-26T07:09:39.044Z,12.17
2017-12-26T07:11:40.005Z,13.60
2017-12-26T07:13:41.829Z,11.13
2017-12-26T07:15:42.726Z,12.87
2017-12-26T07:17:43.688Z,12.17
2017-12-26T07:19:45.462Z,12.70
2017-12-26T07:24:27.014Z,14.03
2017-12-26T07:26:27.996Z,11.10
2017-12-26T07:28:29.021Z,14.07
2017-12-26T07:30:29.987Z,13.53
2017-12-26T07:32:30.980Z,12.03
2017-12-26T07:34:31.996Z,14.47
2017-12-26T07:36:32.941Z,10.87
2017-12-26T07:38:34.705Z,13.70
2017-12-26T07:40:35.692Z,12.87
2017-12-26T07:42:36.686Z,12.77
2017-12-26T07:44:38.737Z,12.93
2017-12-26T07:46:39.742Z,13.37
2017-12-26T07:48:40.755Z,13.60
2017-12-26T07:50:41.790Z,12.67
2017-12-26T07:52:42.731Z,14.90
2017-12-26T07:54:43.768Z,11.23
2017-12-26T07:56:45.530Z,11.60
2017-12-26T07:58:47.282Z,12.07
2017-12-26T08:00:48.275Z,12.37
2017-12-26T08:02:49.255Z,10.67
2017-12-26T08:04:50.250Z,12.67
2017-12-26T08:06:51.963Z,13.33
2017-12-26T08:08:52.978Z,12.27
2017-12-26T08:10:53.938Z,11.30
2017-12-26T08:12:54.975Z,10.60
2017-12-26T08:14:55.994Z,12.47
2017-12-26T08:16:56.998Z,12.17
2017-12-26T08:18:57.958Z,10.40
2017-12-26T08:20:58.936Z,8.40
2017-12-26T08:23:00.694Z,8.60
2017-12-26T08:25:01.687Z,7.87
2017-12-26T08:27:02.655Z,8.07
2017-12-26T08:29:03.658Z,11.23
2017-12-26T08:31:04.704Z,9.10
2017-12-26T08:33:05.684Z,6.50
2017-12-26T08:35:06.667Z,10.10
2017-12-26T08:37:07.683Z,9.63
2017-12-26T08:39:08.702Z,11.40
2017-12-26T08:41:09.777Z,11.40
2017-12-26T08:43:10.748Z,9.87
2017-12-26T08:45:11.863Z,12.00
2017-12-26T08:47:12.826Z,9.20
2017-12-26T08:49:13.861Z,9.50
2017-12-26T08:51:14.913Z,12.10
2017-12-26T08:53:15.883Z,11.20
2017-12-26T08:55:16.897Z,10.10
2017-12-26T08:57:17.912Z,9.70
2017-12-26T08:59:18.949Z,9.60
2017-12-26T09:01:20.721Z,9.03
2017-12-26T09:03:21.741Z,11.70
2017-12-26T09:05:22.761Z,11.70
2017-12-26T09:07:23.705Z,13.67
2017-12-26T09:09:24.732Z,12.10
2017-12-26T09:11:25.906Z,15.20
2017-12-26T09:13:26.858Z,10.30
2017-12-26T09:15:27.800Z,14.00
2017-12-26T09:17:28.786Z,11.77
2017-12-26T09:19:30.487Z,9.93
2017-12-26T09:21:31.466Z,14.00
2017-12-26T09:23:32.430Z,13.10
2017-12-26T09:25:33.399Z,11.63
2017-12-26T09:27:35.188Z,12.50
2017-12-26T09:29:36.089Z,13.07
2017-12-26T09:31:37.027Z,12.63
2017-12-26T09:33:38.016Z,15.27
2017-12-26T09:35:38.956Z,13.60
2017-12-26T09:37:39.896Z,7.20
2017-12-26T09:39:41.585Z,11.80
2017-12-26T09:41:42.563Z,13.37
2017-12-26T09:43:43.506Z,14.13
2017-12-26T09:45:44.454Z,13.37
2017-12-26T09:47:45.405Z,14.30
2017-12-26T09:49:46.382Z,12.87
2017-12-26T09:51:48.132Z,13.17
2017-12-26T09:53:49.862Z,9.57
2017-12-26T09:55:50.826Z,17.45
2017-12-26T09:57:51.787Z,12.83
2017-12-26T09:59:52.771Z,9.03
2017-12-26T10:01:53.786Z,5.67
2017-12-26T10:03:54.752Z,7.40
2017-12-26T10:05:55.704Z,7.07
2017-12-26T10:07:56.650Z,4.73
2017-12-26T10:09:57.717Z,4.47
2017-12-26T10:11:58.692Z,6.10
2017-12-26T10:14:00.034Z,5.70
2017-12-26T10:16:01.004Z,4.13
2017-12-26T10:18:01.987Z,4.57
2017-12-26T10:20:02.944Z,5.20
2017-12-26T10:22:03.901Z,4.50
2017-12-26T10:24:04.882Z,4.00
2017-12-26T10:26:05.907Z,4.30
2017-12-26T10:28:06.900Z,3.90
2017-12-26T10:30:07.901Z,4.87
2017-12-26T10:32:08.882Z,5.10
2017-12-26T10:34:09.943Z,4.77
2017-12-26T10:36:11.684Z,4.10
2017-12-26T10:38:12.700Z,4.80
2017-12-26T10:40:13.784Z,4.57
2017-12-26T10:42:15.548Z,3.50
2017-12-26T10:44:16.572Z,3.70
2017-12-26T10:46:17.558Z,4.10
2017-12-26T10:48:19.302Z,4.00
2017-12-26T10:50:21.086Z,3.37
2017-12-26T10:52:22.832Z,3.87
2017-12-26T10:54:23.848Z,3.17
2017-12-26T10:56:24.818Z,3.60
2017-12-26T10:58:25.804Z,2.83
2017-12-26T11:00:27.208Z,3.73
2017-12-26T11:02:28.231Z,3.30
2017-12-26T11:04:29.207Z,3.13
2017-12-26T11:06:30.266Z,3.50
2017-12-26T11:08:31.245Z,3.90
2017-12-26T11:10:32.368Z,3.40
2017-12-26T11:12:33.364Z,3.37
2017-12-26T11:14:34.361Z,3.10
2017-12-26T11:16:35.359Z,3.57
2017-12-26T11:18:36.429Z,3.67
2017-12-26T11:20:37.523Z,2.97
2017-12-26T11:22:38.530Z,3.23
2017-12-26T11:24:39.558Z,3.57
2017-12-26T11:26:40.841Z,3.40
2017-12-26T11:28:42.007Z,3.50
2017-12-26T11:30:44.913Z,3.90
2017-12-26T11:32:45.924Z,2.80
2017-12-26T11:34:46.907Z,2.43
2017-12-26T11:36:48.647Z,2.50
2017-12-26T11:38:49.640Z,2.30
2017-12-26T11:40:50.740Z,2.70
2017-12-26T11:42:51.736Z,2.50
2017-12-26T11:44:52.717Z,2.37
2017-12-26T11:46:53.694Z,3.07
2017-12-26T11:48:55.447Z,2.50
2017-12-26T11:50:57.236Z,2.07
2017-12-26T11:52:58.302Z,2.57
2017-12-26T11:54:59.312Z,2.53
2017-12-26T11:57:00.309Z,2.67
2017-12-26T11:59:01.315Z,3.10
2017-12-26T12:01:03.139Z,3.13
2017-12-26T12:03:04.123Z,2.93
2017-12-26T12:05:05.169Z,3.30
2017-12-26T12:07:06.160Z,3.37
2017-12-26T12:09:07.123Z,3.60
2017-12-26T12:11:08.141Z,3.70
2017-12-26T12:13:09.146Z,3.27
2017-12-26T12:15:10.187Z,3.60
2017-12-26T12:17:12.006Z,3.77
2017-12-26T12:19:12.996Z,3.80
2017-12-26T12:21:14.113Z,2.90
2017-12-26T12:23:15.076Z,3.60
2017-12-26T12:25:16.556Z,3.70
2017-12-26T12:27:17.528Z,3.90
2017-12-26T12:29:19.281Z,3.33
2017-12-26T12:31:21.041Z,3.60
2017-12-26T12:33:22.089Z,3.20
2017-12-26T12:35:23.826Z,3.43
2017-12-26T12:37:24.812Z,4.10
2017-12-26T12:39:26.520Z,3.70
2017-12-26T12:41:27.507Z,3.70
2017-12-26T12:43:28.684Z,3.60
2017-12-26T12:45:29.805Z,3.97
2017-12-26T12:47:30.758Z,3.03
2017-12-26T12:49:32.472Z,2.77
2017-12-26T12:51:33.504Z,3.53
2017-12-26T12:53:34.451Z,3.80
2017-12-26T12:55:35.468Z,4.30
2017-12-26T12:57:37.201Z,4.10
2017-12-26T12:59:39.003Z,4.07
2017-12-26T13:01:40.004Z,3.50
2017-12-26T13:03:41.072Z,3.67
2017-12-26T13:05:42.068Z,3.43
2017-12-26T13:07:43.125Z,4.27
2017-12-26T13:09:48.067Z,4.17
2017-12-26T13:11:52.053Z,3.43
2017-12-26T13:13:53.044Z,3.87
2017-12-26T13:15:54.045Z,3.87
2017-12-26T13:17:56.222Z,4.30
2017-12-26T13:19:57.289Z,3.50
2017-12-26T13:21:58.259Z,3.83
2017-12-26T13:23:59.232Z,3.57
2017-12-26T13:26:00.190Z,3.40
2017-12-26T13:28:01.904Z,3.03
2017-12-26T13:30:02.965Z,3.50
2017-12-26T13:32:04.053Z,3.53
2017-12-26T13:34:05.762Z,2.90
2017-12-26T13:36:06.754Z,2.97
2017-12-26T13:38:09.609Z,3.17
2017-12-26T13:40:12.167Z,3.10
2017-12-26T13:42:13.741Z,3.50
2017-12-26T13:44:14.833Z,3.37
2017-12-26T13:46:15.820Z,2.73
2017-12-26T13:48:17.198Z,2.80
2017-12-26T13:50:18.341Z,2.40
2017-12-26T13:52:19.348Z,2.60
2017-12-26T13:54:21.079Z,2.80
2017-12-26T13:56:22.138Z,2.40
2017-12-26T13:58:23.088Z,2.60
2017-12-26T14:00:24.126Z,2.30
2017-12-26T14:02:25.096Z,2.70
2017-12-26T14:04:26.800Z,2.80
2017-12-26T14:06:27.771Z,2.30
2017-12-26T14:08:28.752Z,2.60
2017-12-26T14:10:30.561Z,2.60
2017-12-26T14:12:31.804Z,2.20
2017-12-26T14:14:32.770Z,2.90
2017-12-26T14:16:35.694Z,2.90
2017-12-26T14:21:09.620Z,3.23
2017-12-26T14:23:10.773Z,3.20
2017-12-26T14:25:11.854Z,2.20
2017-12-26T14:27:13.644Z,2.73
2017-12-26T14:29:14.619Z,2.87
2017-12-26T14:31:15.583Z,2.63
2017-12-26T14:33:16.721Z,2.67
2017-12-26T14:35:17.703Z,3.70
2017-12-26T14:37:19.399Z,2.37
2017-12-26T14:39:20.475Z,2.50
2017-12-26T14:41:21.470Z,2.23
2017-12-26T14:43:23.194Z,3.00
2017-12-26T14:45:24.252Z,3.07
2017-12-26T14:47:25.220Z,2.90
2017-12-26T14:49:26.196Z,3.20
2017-12-26T14:51:27.198Z,2.70
2017-12-26T14:53:28.363Z,3.00
2017-12-26T14:55:29.375Z,2.60
2017-12-26T14:57:30.383Z,2.80
2017-12-26T14:59:31.352Z,2.80
2017-12-26T15:01:32.426Z,2.83
2017-12-26T15:03:33.464Z,2.80
2017-12-26T15:05:34.516Z,3.20
2017-12-26T15:07:35.455Z,2.00
2017-12-26T15:09:36.500Z,2.43
2017-12-26T15:11:37.474Z,2.43
2017-12-26T15:13:44.697Z,2.90
2017-12-26T15:15:47.370Z,2.77
2017-12-26T15:17:48.359Z,2.80
2017-12-26T15:19:49.394Z,2.70
2017-12-26T15:21:50.500Z,3.20
2017-12-26T15:23:51.608Z,2.60
2017-12-26T15:25:52.742Z,3.20
2017-12-26T15:27:53.764Z,3.50
2017-12-26T15:29:54.768Z,2.57
2017-12-26T15:31:56.212Z,3.50
2017-12-26T15:33:57.338Z,2.70
2017-12-26T15:35:59.190Z,3.23
2017-12-26T15:38:00.202Z,3.00
2017-12-26T15:40:01.202Z,3.10
2017-12-26T15:42:02.216Z,2.93
2017-12-26T15:44:05.555Z,2.40
2017-12-26T15:46:06.703Z,3.00
2017-12-26T15:48:07.684Z,3.43
2017-12-26T15:50:08.622Z,3.17
2017-12-26T15:52:09.596Z,2.83
2017-12-26T15:54:10.779Z,3.63
2017-12-26T15:56:11.726Z,2.90
2017-12-26T15:58:13.632Z,2.97
2017-12-26T16:00:15.523Z,3.50
2017-12-26T16:02:16.459Z,2.80
2017-12-26T16:04:17.448Z,2.97
2017-12-26T16:06:18.448Z,3.23
2017-12-26T16:08:19.462Z,2.57
2017-12-26T16:10:20.531Z,2.80
2017-12-26T16:12:21.644Z,3.00
2017-12-26T16:14:22.627Z,3.40
2017-12-26T16:16:25.626Z,3.30
2017-12-26T16:18:26.601Z,3.40
2017-12-26T16:20:27.875Z,3.00
2017-12-26T16:22:28.975Z,2.80
2017-12-26T16:24:30.027Z,3.33
2017-12-26T16:26:31.152Z,3.00
2017-12-26T16:28:32.168Z,2.63
2017-12-26T16:36:15.849Z,2.70
2017-12-26T16:38:24.666Z,2.80
2017-12-26T16:40:46.744Z,3.10
2017-12-26T16:42:48.957Z,2.70
2017-12-26T16:44:50.144Z,3.77
2017-12-26T16:46:51.912Z,2.90
2017-12-26T16:48:53.768Z,2.67
2017-12-26T16:50:54.815Z,2.80
2017-12-26T16:52:55.999Z,2.73
2017-12-26T16:54:58.264Z,3.53
2017-12-26T16:56:59.950Z,2.57
2017-12-26T16:59:00.928Z,2.47
2017-12-26T17:01:01.869Z,2.97
2017-12-26T17:03:02.819Z,2.97
2017-12-26T17:05:07.930Z,2.47
2017-12-26T17:07:09.069Z,2.40
2017-12-26T17:09:10.042Z,2.77
2017-12-26T17:11:11.019Z,3.20
2017-12-26T17:13:12.075Z,3.60
2017-12-26T17:15:13.055Z,3.20
2017-12-26T17:17:14.876Z,2.27
2017-12-26T17:19:15.910Z,3.00
2017-12-26T17:21:17.775Z,2.53
2017-12-26T17:23:18.732Z,2.77
2017-12-26T17:25:19.752Z,2.80
2017-12-26T17:27:20.746Z,2.40
2017-12-26T17:29:22.473Z,3.20
2017-12-26T17:31:23.491Z,3.13
2017-12-26T17:33:24.482Z,2.90
2017-12-26T17:35:25.454Z,3.13
2017-12-26T17:37:26.399Z,2.90
2017-12-26T17:39:28.212Z,2.70
2017-12-26T17:41:29.193Z,2.87
2017-12-26T17:43:30.209Z,2.73
2017-12-26T17:45:31.204Z,3.00
2017-12-26T17:47:32.272Z,3.30
2017-12-26T17:49:33.400Z,3.27
2017-12-26T17:51:34.430Z,3.63
2017-12-26T17:53:35.516Z,3.30
2017-12-26T17:55:37.305Z,3.90
2017-12-26T17:57:38.325Z,2.90
2017-12-26T17:59:39.312Z,3.67
2017-12-26T18:01:40.269Z,3.03
2017-12-26T18:03:41.246Z,3.30
2017-12-26T18:05:46.648Z,2.93
2017-12-26T18:07:49.461Z,3.77
2017-12-26T18:09:50.460Z,3.30
2017-12-26T18:11:51.423Z,3.30
2017-12-26T18:13:52.440Z,3.20
2017-12-26T18:15:54.208Z,3.03
2017-12-26T18:17:56.652Z,3.57
2017-12-26T18:19:59.955Z,4.07
2017-12-26T18:22:01.060Z,3.50
2017-12-26T18:24:02.044Z,3.90
2017-12-26T18:26:03.042Z,3.27
2017-12-26T18:28:04.128Z,3.30
2017-12-26T18:30:05.141Z,3.00
2017-12-26T18:32:06.118Z,2.93
2017-12-26T18:34:07.099Z,3.10
2017-12-26T18:36:08.332Z,3.53
2017-12-26T18:38:09.280Z,2.47
2017-12-26T18:40:10.722Z,3.50
2017-12-26T18:42:11.691Z,2.50
2017-12-26T18:44:12.746Z,3.73
2017-12-26T18:46:14.568Z,3.13
2017-12-26T18:48:15.514Z,3.00
2017-12-26T18:50:16.471Z,2.80
2017-12-26T18:52:17.460Z,2.80
2017-12-26T18:54:18.416Z,3.07
2017-12-26T18:56:20.128Z,2.60
2017-12-26T18:58:21.107Z,3.27
2017-12-26T19:00:22.052Z,2.90
2017-12-26T19:02:22.982Z,2.90
2017-12-26T19:04:24.209Z,2.33
2017-12-26T19:06:25.186Z,2.67
2017-12-26T19:08:26.310Z,2.53
2017-12-26T19:10:28.983Z,2.90
2017-12-26T19:12:29.921Z,2.33
2017-12-26T19:14:31.162Z,2.50
2017-12-26T19:16:32.170Z,2.87
2017-12-26T19:18:33.158Z,2.70
2017-12-26T19:20:34.103Z,2.97
2017-12-26T19:22:35.115Z,3.00
2017-12-26T19:24:36.056Z,2.57
2017-12-26T19:26:37.037Z,2.40
2017-12-26T19:28:38.771Z,2.00
2017-12-26T19:30:39.766Z,2.57
2017-12-26T19:32:41.424Z,2.40
2017-12-26T19:34:42.374Z,2.43
2017-12-26T19:36:43.466Z,2.50
2017-12-26T19:38:44.489Z,2.40
2017-12-26T19:40:45.490Z,2.00
2017-12-26T19:42:47.161Z,2.30
2017-12-26T19:44:48.091Z,2.07
2017-12-26T19:46:49.032Z,2.17
2017-12-26T19:48:50.282Z,2.97
2017-12-26T19:50:51.986Z,2.10
2017-12-26T19:52:53.035Z,2.10
2017-12-26T19:54:54.077Z,2.70
2017-12-26T19:56:55.183Z,1.90
2017-12-26T19:58:56.152Z,1.97
2017-12-26T20:00:57.851Z,2.33
2017-12-26T20:02:58.834Z,1.90
2017-12-26T20:04:59.945Z,2.13
2017-12-26T20:07:00.934Z,1.87
2017-12-26T20:09:01.893Z,2.47
2017-12-26T20:11:03.761Z,2.07
2017-12-26T20:13:05.551Z,2.70
2017-12-26T20:15:06.494Z,1.97
2017-12-26T20:17:07.471Z,1.50
2017-12-26T20:19:08.492Z,2.20
2017-12-26T20:21:09.719Z,2.40
2017-12-26T20:23:11.058Z,1.93
2017-12-26T20:25:12.244Z,1.93
2017-12-26T20:27:13.281Z,1.53
2017-12-26T20:29:19.074Z,2.30
2017-12-26T20:31:20.248Z,2.27
2017-12-26T20:33:21.474Z,1.70
2017-12-26T20:35:22.542Z,1.80
2017-12-26T20:37:23.627Z,1.97
2017-12-26T20:39:25.885Z,2.20
2017-12-26T20:41:27.197Z,1.70
2017-12-26T20:43:28.514Z,1.90
2017-12-26T20:45:31.199Z,2.07
2017-12-26T20:47:32.231Z,1.80
2017-12-26T20:49:33.356Z,1.67
2017-12-26T20:51:34.642Z,2.13
2017-12-26T20:53:36.371Z,2.13
2017-12-26T20:55:37.452Z,2.23
2017-12-26T20:57:38.454Z,2.27
2017-12-26T20:59:39.414Z,2.40
2017-12-26T21:01:40.400Z,2.10
2017-12-26T21:03:42.177Z,2.20
2017-12-26T21:05:43.929Z,2.07
2017-12-26T21:07:44.899Z,1.50
2017-12-26T21:09:45.949Z,2.37
2017-12-26T21:11:46.930Z,1.60
2017-12-26T21:13:51.034Z,1.53
2017-12-26T21:15:52.024Z,2.27
2017-12-26T21:17:53.167Z,2.20
2017-12-26T21:19:55.087Z,1.75
2017-12-26T21:21:56.065Z,2.03
2017-12-26T21:23:57.066Z,1.73
2017-12-26T21:25:58.039Z,1.57
2017-12-26T21:27:59.013Z,1.97
2017-12-26T21:29:59.994Z,1.73
2017-12-26T21:32:01.739Z,1.63
2017-12-26T21:34:02.755Z,1.63
2017-12-26T21:36:03.725Z,1.70
2017-12-26T21:38:04.832Z,2.17
2017-12-26T21:40:05.820Z,2.27
2017-12-26T21:42:06.766Z,2.90
2017-12-26T21:44:07.735Z,2.33
2017-12-26T21:46:09.512Z,2.50
2017-12-26T21:48:10.501Z,1.90
2017-12-26T21:50:11.487Z,1.50
2017-12-26T21:52:13.285Z,1.93
2017-12-26T21:54:14.313Z,1.60
2017-12-26T21:56:15.286Z,1.40
2017-12-26T21:58:16.226Z,1.67
2017-12-26T22:00:17.207Z,2.13
2017-12-26T22:02:18.245Z,1.97
2017-12-26T22:04:19.235Z,1.70
2017-12-26T22:06:20.951Z,1.70
2017-12-26T22:08:22.183Z,2.47
2017-12-26T22:10:23.179Z,1.87
2017-12-26T22:12:24.135Z,2.10
2017-12-26T22:14:25.831Z,2.00
2017-12-26T22:16:26.801Z,1.93
2017-12-26T22:18:27.776Z,1.90
2017-12-26T22:20:28.986Z,1.70
2017-12-26T22:22:29.988Z,1.80
2017-12-26T22:24:31.671Z,2.20
2017-12-26T22:26:32.863Z,1.70
2017-12-26T22:28:36.509Z,2.03
2017-12-26T22:30:38.243Z,2.20
2017-12-26T22:32:39.425Z,1.90
2017-12-26T22:34:41.237Z,2.07
2017-12-26T22:36:42.190Z,1.90
2017-12-26T22:38:43.190Z,2.07
2017-12-26T22:40:44.894Z,2.10
2017-12-26T22:42:45.851Z,2.03
2017-12-26T22:44:46.822Z,2.20
2017-12-26T22:46:47.790Z,1.50
2017-12-26T22:48:49.602Z,1.87
2017-12-26T22:50:50.605Z,1.80
2017-12-26T22:52:52.316Z,2.30
2017-12-26T22:54:53.340Z,2.07
2017-12-26T22:56:54.309Z,1.83
2017-12-26T22:58:55.332Z,1.87
2017-12-26T23:00:56.445Z,2.27
2017-12-26T23:02:58.682Z,1.83
2017-12-26T23:04:59.709Z,2.50
2017-12-26T23:07:00.732Z,1.87
2017-12-26T23:09:01.716Z,2.03
2017-12-26T23:11:02.715Z,1.80
2017-12-26T23:13:04.456Z,2.07
2017-12-26T23:15:11.526Z,2.17
2017-12-26T23:17:21.541Z,2.47
2017-12-26T23:19:22.526Z,2.87
2017-12-26T23:21:23.519Z,2.60
2017-12-26T23:23:30.752Z,2.40
2017-12-26T23:25:37.777Z,1.90
2017-12-26T23:27:51.698Z,2.33
2017-12-26T23:29:58.698Z,2.20
2017-12-26T23:32:05.945Z,2.47
2017-12-26T23:34:13.002Z,2.50
2017-12-26T23:36:20.011Z,2.10
2017-12-26T23:38:28.188Z,1.73
2017-12-26T23:40:35.174Z,2.23
2017-12-26T23:42:42.174Z,1.93
2017-12-26T23:45:03.027Z,1.83
2017-12-26T23:47:10.192Z,2.23
2017-12-26T23:49:17.340Z,2.83
2017-12-26T23:51:24.375Z,2.33
2017-12-26T23:53:32.194Z,3.07
2017-12-26T23:55:40.054Z,2.50
2017-12-26T23:57:47.142Z,2.30
2017-12-26T23:59:54.453Z,2.20
